createdAt,value
2022-08-12T00:00:08.526Z,27.21
2022-08-12T00:02:55.061Z,27.10
2022-08-12T00:06:03.946Z,26.74
2022-08-12T00:13:13.090Z,26.75
2022-08-12T00:16:02.147Z,26.88
2022-08-12T00:18:48.345Z,26.93
2022-08-12T00:22:24.380Z,26.90
2022-08-12T00:25:21.713Z,26.61
2022-08-12T00:28:27.616Z,26.63
2022-08-12T00:31:13.084Z,26.64
2022-08-12T00:33:58.784Z,26.82
2022-08-12T00:36:48.845Z,26.96
2022-08-12T00:39:36.374Z,26.89
2022-08-12T00:42:13.560Z,26.55
2022-08-12T00:44:45.545Z,26.70
2022-08-12T00:47:24.421Z,26.74
2022-08-12T00:49:55.569Z,26.78
2022-08-12T00:52:23.308Z,26.67
2022-08-12T00:54:54.128Z,26.50
2022-08-12T00:57:24.211Z,26.64
2022-08-12T00:59:53.166Z,26.66
2022-08-12T01:02:33.387Z,26.71
2022-08-12T01:05:40.481Z,26.85
2022-08-12T01:08:26.239Z,26.84
2022-08-12T01:11:14.034Z,26.84
2022-08-12T01:13:47.273Z,26.91
2022-08-12T01:16:17.373Z,26.75
2022-08-12T01:18:44.823Z,26.89
2022-08-12T01:21:33.511Z,26.91
2022-08-12T01:24:34.218Z,26.85
2022-08-12T01:27:07.848Z,26.86
2022-08-12T01:29:41.793Z,27.02
2022-08-12T01:32:12.534Z,26.96
2022-08-12T01:34:45.300Z,26.94
2022-08-12T01:37:13.541Z,26.90
2022-08-12T01:40:34.587Z,26.85
2022-08-12T01:42:43.381Z,26.90
2022-08-12T01:45:12.467Z,26.65
2022-08-12T01:48:16.989Z,26.71
2022-08-12T01:52:14.680Z,26.67
2022-08-12T01:54:19.157Z,26.68
2022-08-12T01:57:07.030Z,26.63
2022-08-12T01:59:59.416Z,26.65
2022-08-12T02:02:27.344Z,26.54
2022-08-12T02:05:26.397Z,26.63
2022-08-12T02:08:29.005Z,26.87
2022-08-12T02:11:16.400Z,26.77
2022-08-12T02:14:06.568Z,26.77
2022-08-12T02:16:42.080Z,26.69
2022-08-12T02:19:37.217Z,26.76
2022-08-12T02:22:36.720Z,26.68
2022-08-12T02:25:17.037Z,26.56
2022-08-12T02:27:47.257Z,26.55
2022-08-12T02:30:20.465Z,26.40
2022-08-12T02:32:49.570Z,26.45
2022-08-12T02:35:19.703Z,26.58
2022-08-12T02:37:48.796Z,26.42
2022-08-12T02:40:18.050Z,26.63
2022-08-12T02:43:12.253Z,26.53
2022-08-12T02:45:56.786Z,26.67
2022-08-12T02:48:30.215Z,26.65
2022-08-12T02:51:06.797Z,26.59
2022-08-12T02:53:36.165Z,26.54
2022-08-12T02:56:05.229Z,26.44
2022-08-12T02:58:34.000Z,26.36
2022-08-12T03:01:10.280Z,26.42
2022-08-12T03:03:39.459Z,26.42
2022-08-12T03:06:27.319Z,26.38
2022-08-12T03:08:57.459Z,26.47
2022-08-12T03:11:49.021Z,26.49
2022-08-12T03:14:18.117Z,26.58
2022-08-12T03:16:50.347Z,26.46
2022-08-12T03:19:24.808Z,26.48
2022-08-12T03:22:09.309Z,26.41
2022-08-12T03:24:42.080Z,26.48
2022-08-12T03:27:11.284Z,26.37
2022-08-12T03:29:47.469Z,26.27
2022-08-12T03:32:35.485Z,26.17
2022-08-12T03:35:07.830Z,26.07
2022-08-12T03:37:37.307Z,26.15
2022-08-12T03:40:05.042Z,26.17
2022-08-12T03:42:51.850Z,26.32
2022-08-12T03:45:51.535Z,26.33
2022-08-12T03:48:38.792Z,26.15
2022-08-12T03:51:26.444Z,26.08
2022-08-12T03:54:12.971Z,25.98
2022-08-12T03:56:58.893Z,25.64
2022-08-12T03:59:44.789Z,25.82
2022-08-12T04:02:16.253Z,25.85
2022-08-12T04:04:45.618Z,25.61
2022-08-12T04:07:16.509Z,25.45
2022-08-12T04:09:45.528Z,25.23
2022-08-12T04:12:32.718Z,25.61
2022-08-12T04:15:01.393Z,25.56
2022-08-12T04:17:28.594Z,25.45
2022-08-12T04:19:59.386Z,25.63
2022-08-12T04:22:30.499Z,25.64
2022-08-12T04:25:02.157Z,25.56
2022-08-12T04:27:31.692Z,25.57
2022-08-12T04:30:30.213Z,25.45
2022-08-12T04:32:50.172Z,25.27
2022-08-12T04:35:17.907Z,25.13
2022-08-12T04:37:59.131Z,25.12
2022-08-12T04:40:30.793Z,24.95
2022-08-12T04:43:01.024Z,25.27
2022-08-12T04:45:29.059Z,25.40
2022-08-12T04:47:56.712Z,25.24
2022-08-12T04:50:26.863Z,25.17
2022-08-12T04:53:02.938Z,25.46
2022-08-12T04:55:30.025Z,25.30
2022-08-12T04:57:56.896Z,25.29
2022-08-12T05:00:23.911Z,25.36
2022-08-12T05:02:51.125Z,25.35
2022-08-12T05:05:23.034Z,25.40
2022-08-12T05:07:54.218Z,25.67
2022-08-12T05:10:33.915Z,25.67
2022-08-12T05:13:08.384Z,25.74
2022-08-12T05:16:04.803Z,25.67
2022-08-12T05:18:39.164Z,25.95
2022-08-12T05:21:08.072Z,25.89
2022-08-12T05:23:37.359Z,25.83
2022-08-12T05:26:04.969Z,25.83
2022-08-12T05:28:32.170Z,25.83
2022-08-12T05:31:03.432Z,25.89
2022-08-12T05:33:37.639Z,25.90
2022-08-12T05:36:12.719Z,25.67
2022-08-12T05:38:58.531Z,25.78
2022-08-12T05:41:36.109Z,25.91
2022-08-12T05:44:06.497Z,25.83
2022-08-12T05:46:36.721Z,25.88
2022-08-12T05:49:04.775Z,26.05
2022-08-12T05:51:40.925Z,26.06
2022-08-12T05:54:10.490Z,26.22
2022-08-12T05:56:37.494Z,25.81
2022-08-12T05:59:11.158Z,25.97
2022-08-12T06:02:09.752Z,26.09
2022-08-12T06:04:26.182Z,25.98
2022-08-12T06:06:53.627Z,26.12
2022-08-12T06:09:22.555Z,26.20
2022-08-12T06:12:05.841Z,26.35
2022-08-12T06:14:36.942Z,26.24
2022-08-12T06:17:05.461Z,26.18
2022-08-12T06:20:27.810Z,26.12
2022-08-12T06:22:19.636Z,26.37
2022-08-12T06:24:48.399Z,26.32
2022-08-12T06:27:17.757Z,26.51
2022-08-12T06:30:09.343Z,26.55
2022-08-12T06:32:31.631Z,26.57
2022-08-12T06:35:23.839Z,26.03
2022-08-12T06:37:57.094Z,26.08
2022-08-12T06:41:04.094Z,26.58
2022-08-12T06:44:06.140Z,26.83
2022-08-12T06:46:19.475Z,26.35
2022-08-12T06:48:46.315Z,26.42
2022-08-12T06:51:13.411Z,26.06
2022-08-12T06:53:46.964Z,26.00
2022-08-12T06:56:17.475Z,26.24
2022-08-12T06:58:44.549Z,26.12
2022-08-12T07:01:11.705Z,26.28
2022-08-12T07:03:38.577Z,26.19
2022-08-12T07:06:11.678Z,26.36
2022-08-12T07:08:39.858Z,26.74
2022-08-12T07:11:09.357Z,26.40
2022-08-12T07:14:02.386Z,26.96
2022-08-12T07:16:50.554Z,26.74
2022-08-12T07:19:17.994Z,26.87
2022-08-12T07:21:59.899Z,26.73
2022-08-12T07:24:30.269Z,26.96
2022-08-12T07:26:57.092Z,27.29
2022-08-12T07:29:26.108Z,26.98
2022-08-12T07:32:12.985Z,26.92
2022-08-12T07:34:43.368Z,26.88
2022-08-12T07:37:10.328Z,27.19
2022-08-12T07:39:37.141Z,27.54
2022-08-12T07:42:17.476Z,27.36
2022-08-12T07:44:44.453Z,27.15
2022-08-12T07:47:12.624Z,27.17
2022-08-12T07:50:03.332Z,26.68
2022-08-12T07:52:26.609Z,26.90
2022-08-12T07:54:53.947Z,27.14
2022-08-12T07:57:21.403Z,27.29
2022-08-12T07:59:48.282Z,27.58
2022-08-12T08:02:22.351Z,27.75
2022-08-12T08:04:57.477Z,27.91
2022-08-12T08:07:30.934Z,28.04
2022-08-12T08:10:00.322Z,28.01
2022-08-12T08:12:47.497Z,28.42
2022-08-12T08:15:15.797Z,28.22
2022-08-12T08:17:59.707Z,28.67
2022-08-12T08:20:30.736Z,28.88
2022-08-12T08:22:59.002Z,29.05
2022-08-12T08:25:36.457Z,29.21
2022-08-12T08:28:08.298Z,29.43
2022-08-12T08:30:38.379Z,29.49
2022-08-12T08:33:23.515Z,29.32
2022-08-12T08:35:56.171Z,29.40
2022-08-12T08:38:32.157Z,29.63
2022-08-12T08:42:17.008Z,29.58
2022-08-12T08:44:08.021Z,30.27
2022-08-12T08:46:38.057Z,29.81
2022-08-12T08:49:06.205Z,30.02
2022-08-12T08:51:33.770Z,30.47
2022-08-12T08:54:00.580Z,30.55
2022-08-12T08:56:29.581Z,30.57
2022-08-12T08:58:57.759Z,30.54
2022-08-12T09:01:25.362Z,30.51
2022-08-12T09:05:08.343Z,30.92
2022-08-12T09:06:53.787Z,29.81
2022-08-12T09:09:21.418Z,30.30
2022-08-12T09:12:11.934Z,30.33
2022-08-12T09:14:46.967Z,30.71
2022-08-12T09:17:22.271Z,30.58
2022-08-12T09:19:56.901Z,30.55
2022-08-12T09:22:28.530Z,30.24
2022-08-12T09:24:59.836Z,30.37
2022-08-12T09:30:16.062Z,30.58
2022-08-12T09:33:04.714Z,31.02
2022-08-12T09:35:42.842Z,31.20
2022-08-12T09:38:28.582Z,30.88
2022-08-12T09:42:07.186Z,30.98
2022-08-12T09:44:04.981Z,31.55
2022-08-12T09:46:34.479Z,31.25
2022-08-12T09:49:04.076Z,31.17
2022-08-12T09:51:43.349Z,30.94
2022-08-12T09:54:32.812Z,31.41
2022-08-12T09:58:50.355Z,31.28
2022-08-12T10:00:12.845Z,31.47
2022-08-12T10:03:31.249Z,31.20
2022-08-12T10:06:28.052Z,30.88
2022-08-12T10:08:52.257Z,31.17
2022-08-12T10:12:10.416Z,31.12
2022-08-12T10:14:34.428Z,31.54
2022-08-12T10:17:02.257Z,31.15
2022-08-12T10:19:36.699Z,31.23
2022-08-12T10:22:06.181Z,31.67
2022-08-12T10:25:17.185Z,31.54
2022-08-12T10:28:08.368Z,31.57
2022-08-12T10:30:46.836Z,31.54
2022-08-12T10:33:31.741Z,32.13
2022-08-12T10:36:00.406Z,31.09
2022-08-12T10:38:34.770Z,32.04
2022-08-12T10:41:57.442Z,32.47
2022-08-12T10:44:17.257Z,32.39
2022-08-12T10:46:49.204Z,31.51
2022-08-12T10:50:07.083Z,32.12
2022-08-12T10:52:34.836Z,31.19
2022-08-12T10:54:59.938Z,31.58
2022-08-12T10:58:13.350Z,31.03
2022-08-12T11:00:33.993Z,31.57
2022-08-12T11:04:25.808Z,31.69
2022-08-12T11:07:08.560Z,31.46
2022-08-12T11:08:43.203Z,31.71
2022-08-12T11:11:17.921Z,31.67
2022-08-12T11:14:05.830Z,31.41
2022-08-12T11:16:33.910Z,31.61
2022-08-12T11:19:05.386Z,30.98
2022-08-12T11:21:56.437Z,31.06
2022-08-12T11:24:32.048Z,31.25
2022-08-12T11:27:02.189Z,30.92
2022-08-12T11:30:01.708Z,31.40
2022-08-12T11:32:23.414Z,31.50
2022-08-12T11:34:54.785Z,30.71
2022-08-12T11:37:25.626Z,31.05
2022-08-12T11:40:10.355Z,31.07
2022-08-12T11:42:46.200Z,31.04
2022-08-12T11:45:16.907Z,30.83
2022-08-12T11:47:44.397Z,30.51
2022-08-12T11:50:19.678Z,31.00
2022-08-12T11:52:56.740Z,31.37
2022-08-12T11:55:29.355Z,31.28
2022-08-12T11:58:09.500Z,31.11
2022-08-12T12:03:45.776Z,31.07
2022-08-12T12:06:17.866Z,30.30
2022-08-12T12:08:51.099Z,29.73
2022-08-12T12:11:19.677Z,29.25
2022-08-12T12:14:08.891Z,29.56
2022-08-12T12:16:38.075Z,29.31
2022-08-12T12:19:10.138Z,29.35
2022-08-12T12:21:46.913Z,29.61
2022-08-12T12:24:22.065Z,29.91
2022-08-12T12:27:00.441Z,30.22
2022-08-12T12:30:17.649Z,30.75
2022-08-12T12:32:17.099Z,30.77
2022-08-12T12:35:14.003Z,31.28
2022-08-12T12:38:05.116Z,31.45
2022-08-12T12:40:20.217Z,32.11
2022-08-12T12:42:56.021Z,32.23
2022-08-12T12:45:28.058Z,31.13
2022-08-12T12:48:19.144Z,31.41
2022-08-12T12:51:12.175Z,31.80
2022-08-12T12:54:08.368Z,32.03
2022-08-12T12:56:34.003Z,32.04
2022-08-12T12:59:03.759Z,32.14
2022-08-12T13:01:38.194Z,31.88
2022-08-12T13:04:08.238Z,32.60
2022-08-12T13:06:41.272Z,33.06
2022-08-12T13:09:12.877Z,32.36
2022-08-12T13:11:42.073Z,32.49
2022-08-12T13:14:28.970Z,33.22
2022-08-12T13:17:03.667Z,33.27
2022-08-12T13:19:45.188Z,33.51
2022-08-12T13:22:21.253Z,34.04
2022-08-12T13:24:56.029Z,34.13
2022-08-12T13:27:34.647Z,34.57
2022-08-12T13:30:11.063Z,33.46
2022-08-12T13:32:46.891Z,33.74
2022-08-12T13:36:03.345Z,32.68
2022-08-12T13:38:26.724Z,33.54
2022-08-12T13:41:03.770Z,33.82
2022-08-12T13:43:40.854Z,33.10
2022-08-12T13:46:11.911Z,32.71
2022-08-12T13:48:45.347Z,32.70
2022-08-12T13:51:14.138Z,33.13
2022-08-12T13:53:57.851Z,33.46
2022-08-12T13:56:34.518Z,32.74
2022-08-12T13:59:07.808Z,32.44
2022-08-12T14:01:40.135Z,33.04
2022-08-12T14:04:11.903Z,33.24
2022-08-12T14:06:40.675Z,33.39
2022-08-12T14:09:15.648Z,33.62
2022-08-12T14:11:58.478Z,33.98
2022-08-12T14:14:27.124Z,34.06
2022-08-12T14:16:54.058Z,32.94
2022-08-12T14:19:24.414Z,33.63
2022-08-12T14:22:01.124Z,32.43
2022-08-12T14:24:35.381Z,32.78
2022-08-12T14:27:03.806Z,33.33
2022-08-12T14:29:55.796Z,33.10
2022-08-12T14:32:25.227Z,33.46
2022-08-12T14:34:53.123Z,33.04
2022-08-12T14:37:57.863Z,33.72
2022-08-12T14:40:18.374Z,34.20
2022-08-12T14:42:47.026Z,34.32
2022-08-12T14:45:14.368Z,34.18
2022-08-12T14:47:50.036Z,33.85
2022-08-12T14:50:58.743Z,34.79
2022-08-12T14:59:20.397Z,34.33
2022-08-12T15:01:52.133Z,34.08
2022-08-12T15:04:28.531Z,34.09
2022-08-12T15:06:56.344Z,33.94
2022-08-12T15:09:28.642Z,33.44
2022-08-12T15:12:03.729Z,33.82
2022-08-12T15:14:31.967Z,33.59
2022-08-12T15:17:01.752Z,34.04
2022-08-12T15:20:31.634Z,33.58
2022-08-12T15:22:39.316Z,33.63
2022-08-12T15:25:07.464Z,33.62
2022-08-12T15:28:04.373Z,34.17
2022-08-12T15:30:31.421Z,33.82
2022-08-12T15:32:59.053Z,34.42
2022-08-12T15:35:38.350Z,34.45
2022-08-12T15:38:20.241Z,34.52
2022-08-12T15:40:51.285Z,34.12
2022-08-12T15:43:51.043Z,34.21
2022-08-12T15:46:06.943Z,33.55
2022-08-12T15:48:35.200Z,33.46
2022-08-12T15:51:03.168Z,33.38
2022-08-12T15:53:53.250Z,33.34
2022-08-12T15:56:29.673Z,33.70
2022-08-12T15:58:59.026Z,33.27
2022-08-12T16:01:35.359Z,33.34
2022-08-12T16:04:05.151Z,33.25
2022-08-12T16:09:56.449Z,33.32
2022-08-12T16:12:12.175Z,33.30
2022-08-12T16:14:39.343Z,33.36
2022-08-12T16:17:08.950Z,32.81
2022-08-12T16:20:05.331Z,32.72
2022-08-12T16:22:24.484Z,32.27
2022-08-12T16:24:54.146Z,32.38
2022-08-12T16:27:23.510Z,32.39
2022-08-12T16:29:57.705Z,32.37
2022-08-12T16:32:31.514Z,32.40
2022-08-12T16:35:00.767Z,32.33
2022-08-12T16:37:32.389Z,32.31
2022-08-12T16:40:18.819Z,32.29
2022-08-12T16:42:54.118Z,32.35
2022-08-12T16:46:23.285Z,32.43
2022-08-12T16:48:33.944Z,32.44
2022-08-12T16:51:09.777Z,32.58
2022-08-12T16:53:43.905Z,32.59
2022-08-12T16:56:17.447Z,32.49
2022-08-12T16:58:44.599Z,32.22
2022-08-12T17:01:16.617Z,32.26
2022-08-12T17:03:59.738Z,31.04
2022-08-12T17:06:28.074Z,31.09
2022-08-12T17:09:03.073Z,30.63
2022-08-12T17:11:33.439Z,30.64
2022-08-12T17:14:01.712Z,30.22
2022-08-12T17:16:29.939Z,30.19
2022-08-12T17:18:59.543Z,30.39
2022-08-12T17:21:41.259Z,30.49
2022-08-12T17:24:21.521Z,30.27
2022-08-12T17:26:56.319Z,30.59
2022-08-12T17:29:24.125Z,30.46
2022-08-12T17:32:11.152Z,30.30
2022-08-12T17:34:56.972Z,30.63
2022-08-12T17:37:23.919Z,30.33
2022-08-12T17:40:12.500Z,30.28
2022-08-12T17:42:47.510Z,30.17
2022-08-12T17:45:19.941Z,29.71
2022-08-12T17:48:01.113Z,29.79
2022-08-12T17:50:32.281Z,29.85
2022-08-12T17:53:02.849Z,30.13
2022-08-12T17:55:43.200Z,30.21
2022-08-12T17:58:18.707Z,30.05
2022-08-12T18:00:50.631Z,29.78
2022-08-12T18:04:05.355Z,29.65
2022-08-12T18:06:08.529Z,29.44
2022-08-12T18:08:43.285Z,29.44
2022-08-12T18:12:05.527Z,30.01
2022-08-12T18:14:28.739Z,30.07
2022-08-12T18:17:00.808Z,30.22
2022-08-12T18:19:34.097Z,30.04
2022-08-12T18:22:22.170Z,30.05
2022-08-12T18:25:04.911Z,29.71
2022-08-12T18:27:44.210Z,30.00
2022-08-12T18:30:16.548Z,29.88
2022-08-12T18:33:04.017Z,29.49
2022-08-12T18:35:47.453Z,29.07
2022-08-12T18:38:22.701Z,29.22
2022-08-12T18:41:20.909Z,29.46
2022-08-12T18:43:58.571Z,29.72
2022-08-12T18:46:32.121Z,29.84
2022-08-12T18:49:16.757Z,29.85
2022-08-12T18:51:55.073Z,29.89
2022-08-12T18:54:31.255Z,29.70
2022-08-12T18:57:01.051Z,29.81
2022-08-12T19:00:02.193Z,29.47
2022-08-12T19:02:21.540Z,29.02
2022-08-12T19:04:53.532Z,29.21
2022-08-12T19:07:24.880Z,29.40
2022-08-12T19:09:59.980Z,29.36
2022-08-12T19:12:57.117Z,29.41
2022-08-12T19:15:29.882Z,29.74
2022-08-12T19:18:02.629Z,29.74
2022-08-12T19:20:31.639Z,29.69
2022-08-12T19:23:02.263Z,29.66
2022-08-12T19:26:00.188Z,29.76
2022-08-12T19:28:30.381Z,29.69
2022-08-12T19:31:55.628Z,29.78
2022-08-12T19:37:27.002Z,29.22
2022-08-12T19:40:09.549Z,29.33
2022-08-12T19:42:53.597Z,29.36
2022-08-12T19:45:24.392Z,29.28
2022-08-12T19:48:17.457Z,28.74
2022-08-12T19:50:50.522Z,28.68
2022-08-12T19:53:22.799Z,28.88
2022-08-12T19:55:55.207Z,28.98
2022-08-12T19:58:23.892Z,29.18
2022-08-12T20:00:54.412Z,28.82
2022-08-12T20:03:40.281Z,28.88
2022-08-12T20:06:14.188Z,28.87
2022-08-12T20:08:48.868Z,28.94
2022-08-12T20:12:13.026Z,28.92
2022-08-12T20:14:09.802Z,28.67
2022-08-12T20:19:52.945Z,28.57
2022-08-12T20:22:24.423Z,28.73
2022-08-12T20:25:07.319Z,28.57
2022-08-12T20:28:04.007Z,28.38
2022-08-12T20:30:37.705Z,27.55
2022-08-12T20:33:19.116Z,27.22
2022-08-12T20:36:13.916Z,27.65
2022-08-12T20:38:39.564Z,27.82
2022-08-12T20:41:16.307Z,27.89
2022-08-12T20:43:49.378Z,28.08
2022-08-12T20:46:17.950Z,28.06
2022-08-12T20:48:46.984Z,28.16
2022-08-12T20:51:22.450Z,28.05
2022-08-12T20:53:58.282Z,28.18
2022-08-12T20:56:33.404Z,28.21
2022-08-12T20:59:02.295Z,27.79
2022-08-12T21:01:45.893Z,27.68
2022-08-12T21:04:33.357Z,27.74
2022-08-12T21:07:08.936Z,27.75
2022-08-12T21:09:41.525Z,27.71
2022-08-12T21:12:27.584Z,27.51
2022-08-12T21:15:23.677Z,26.82
2022-08-12T21:18:10.621Z,27.28
2022-08-12T21:20:50.837Z,27.28
2022-08-12T21:23:21.522Z,27.23
2022-08-12T21:25:51.102Z,27.22
2022-08-12T21:28:20.620Z,26.72
2022-08-12T21:31:11.262Z,27.45
2022-08-12T21:33:58.378Z,27.53
2022-08-12T21:36:34.479Z,27.33
2022-08-12T21:39:18.711Z,27.54
2022-08-12T21:41:52.934Z,27.71
2022-08-12T21:45:43.965Z,27.73
2022-08-12T21:47:21.196Z,27.56
2022-08-12T21:50:03.427Z,27.20
2022-08-12T21:52:36.208Z,27.21
2022-08-12T21:55:19.372Z,26.98
2022-08-12T21:57:53.772Z,26.87
2022-08-12T22:00:32.863Z,27.18
2022-08-12T22:04:04.262Z,27.42
2022-08-12T22:06:31.181Z,27.30
2022-08-12T22:09:15.976Z,27.58
2022-08-12T22:11:56.721Z,27.68
2022-08-12T22:14:28.741Z,27.73
2022-08-12T22:16:57.222Z,27.66
2022-08-12T22:19:24.440Z,27.59
2022-08-12T22:21:54.796Z,27.71
2022-08-12T22:24:26.432Z,27.68
2022-08-12T22:26:59.650Z,27.50
2022-08-12T22:30:01.064Z,27.70
2022-08-12T22:32:30.097Z,27.46
2022-08-12T22:35:23.141Z,27.37
2022-08-12T22:37:53.572Z,27.33
2022-08-12T22:40:22.725Z,27.48
2022-08-12T22:43:14.563Z,27.48
2022-08-12T22:46:01.576Z,27.39
2022-08-12T22:48:28.602Z,27.49
2022-08-12T22:50:59.355Z,27.36
2022-08-12T22:53:35.803Z,27.54
2022-08-12T22:56:08.182Z,27.57
2022-08-12T22:58:36.892Z,27.23
2022-08-12T23:01:11.095Z,27.32
2022-08-12T23:03:48.116Z,27.10
2022-08-12T23:06:23.847Z,27.30
2022-08-12T23:08:52.317Z,27.47
2022-08-12T23:11:23.800Z,27.34
2022-08-12T23:13:56.972Z,27.34
2022-08-12T23:16:31.695Z,27.50
2022-08-12T23:19:22.948Z,27.60
2022-08-12T23:22:05.036Z,27.51
2022-08-12T23:24:56.073Z,27.50
2022-08-12T23:27:51.861Z,27.27
2022-08-12T23:30:32.243Z,27.26
2022-08-12T23:33:13.108Z,27.12
2022-08-12T23:35:45.643Z,27.11
2022-08-12T23:38:30.354Z,27.32
2022-08-12T23:41:01.273Z,27.26
2022-08-12T23:43:39.095Z,27.17
2022-08-12T23:46:10.857Z,27.20
2022-08-12T23:48:38.085Z,27.23
2022-08-12T23:51:22.318Z,27.26
2022-08-12T23:53:56.223Z,27.18
2022-08-12T23:56:26.471Z,27.23
2022-08-12T23:58:55.205Z,27.09
